sensor_id;sensor_type;location;lat;lon;timestamp;temperature;humidity
75376;HTU21D;63958;52.004;5.908;2022-11-11T00:00:47;11.33;76.09
75376;HTU21D;63958;52.004;5.908;2022-11-11T00:03:34;11.33;76.08
75376;HTU21D;63958;52.004;5.908;2022-11-11T00:06:24;11.32;76.19
75376;HTU21D;63958;52.004;5.908;2022-11-11T00:09:12;11.30;76.15
75376;HTU21D;63958;52.004;5.908;2022-11-11T00:12:00;11.30;76.22
75376;HTU21D;63958;52.004;5.908;2022-11-11T00:14:47;11.31;76.22
75376;HTU21D;63958;52.004;5.908;2022-11-11T00:17:35;11.29;76.42
75376;HTU21D;63958;52.004;5.908;2022-11-11T00:20:35;11.29;76.30
75376;HTU21D;63958;52.004;5.908;2022-11-11T00:23:37;11.27;76.27
75376;HTU21D;63958;52.004;5.908;2022-11-11T00:26:37;11.26;76.41
75376;HTU21D;63958;52.004;5.908;2022-11-11T00:29:25;11.27;76.50
75376;HTU21D;63958;52.004;5.908;2022-11-11T00:32:13;11.27;76.54
75376;HTU21D;63958;52.004;5.908;2022-11-11T00:35:11;11.27;76.71
75376;HTU21D;63958;52.004;5.908;2022-11-11T00:38:12;11.30;76.46
75376;HTU21D;63958;52.004;5.908;2022-11-11T00:41:23;11.30;76.57
75376;HTU21D;63958;52.004;5.908;2022-11-11T00:44:11;11.30;76.66
75376;HTU21D;63958;52.004;5.908;2022-11-11T00:46:59;11.32;76.60
75376;HTU21D;63958;52.004;5.908;2022-11-11T00:49:59;11.32;76.64
75376;HTU21D;63958;52.004;5.908;2022-11-11T00:52:59;11.31;76.68
75376;HTU21D;63958;52.004;5.908;2022-11-11T00:55:47;11.31;76.72
75376;HTU21D;63958;52.004;5.908;2022-11-11T00:58:37;11.36;76.68
75376;HTU21D;63958;52.004;5.908;2022-11-11T01:01:25;11.34;76.85
75376;HTU21D;63958;52.004;5.908;2022-11-11T01:04:12;11.36;76.79
75376;HTU21D;63958;52.004;5.908;2022-11-11T01:06:59;11.34;76.82
75376;HTU21D;63958;52.004;5.908;2022-11-11T01:09:47;11.37;76.87
75376;HTU21D;63958;52.004;5.908;2022-11-11T01:12:35;11.33;76.94
75376;HTU21D;63958;52.004;5.908;2022-11-11T01:15:25;11.37;76.94
75376;HTU21D;63958;52.004;5.908;2022-11-11T01:18:15;11.38;76.86
75376;HTU21D;63958;52.004;5.908;2022-11-11T01:21:05;11.40;76.85
75376;HTU21D;63958;52.004;5.908;2022-11-11T01:23:53;11.42;76.89
75376;HTU21D;63958;52.004;5.908;2022-11-11T01:26:40;11.44;76.86
75376;HTU21D;63958;52.004;5.908;2022-11-11T01:29:28;11.43;76.86
75376;HTU21D;63958;52.004;5.908;2022-11-11T01:32:18;11.43;76.86
75376;HTU21D;63958;52.004;5.908;2022-11-11T01:35:06;11.44;76.86
75376;HTU21D;63958;52.004;5.908;2022-11-11T01:37:55;11.46;76.83
75376;HTU21D;63958;52.004;5.908;2022-11-11T01:40:44;11.47;76.86
75376;HTU21D;63958;52.004;5.908;2022-11-11T01:43:31;11.51;76.89
75376;HTU21D;63958;52.004;5.908;2022-11-11T01:46:35;11.48;76.80
75376;HTU21D;63958;52.004;5.908;2022-11-11T01:49:30;11.47;76.94
75376;HTU21D;63958;52.004;5.908;2022-11-11T01:52:19;11.43;77.24
75376;HTU21D;63958;52.004;5.908;2022-11-11T01:55:11;11.42;77.17
75376;HTU21D;63958;52.004;5.908;2022-11-11T01:58:02;11.39;77.24
75376;HTU21D;63958;52.004;5.908;2022-11-11T02:00:51;11.41;77.26
75376;HTU21D;63958;52.004;5.908;2022-11-11T02:03:40;11.41;77.27
75376;HTU21D;63958;52.004;5.908;2022-11-11T02:06:54;11.42;77.31
75376;HTU21D;63958;52.004;5.908;2022-11-11T02:09:42;11.43;77.31
75376;HTU21D;63958;52.004;5.908;2022-11-11T02:12:31;11.44;77.32
75376;HTU21D;63958;52.004;5.908;2022-11-11T02:15:31;11.46;77.31
75376;HTU21D;63958;52.004;5.908;2022-11-11T02:18:19;11.48;77.33
75376;HTU21D;63958;52.004;5.908;2022-11-11T02:21:07;11.49;77.34
75376;HTU21D;63958;52.004;5.908;2022-11-11T02:24:02;11.51;77.35
75376;HTU21D;63958;52.004;5.908;2022-11-11T02:26:51;11.51;77.48
75376;HTU21D;63958;52.004;5.908;2022-11-11T02:29:39;11.52;77.51
75376;HTU21D;63958;52.004;5.908;2022-11-11T02:32:27;11.53;77.51
75376;HTU21D;63958;52.004;5.908;2022-11-11T02:35:18;11.54;77.41
75376;HTU21D;63958;52.004;5.908;2022-11-11T02:38:07;11.55;77.66
75376;HTU21D;63958;52.004;5.908;2022-11-11T02:40:58;11.57;77.44
75376;HTU21D;63958;52.004;5.908;2022-11-11T02:43:58;11.55;77.50
75376;HTU21D;63958;52.004;5.908;2022-11-11T02:46:45;11.57;77.45
75376;HTU21D;63958;52.004;5.908;2022-11-11T02:49:33;11.59;77.47
75376;HTU21D;63958;52.004;5.908;2022-11-11T02:52:20;11.60;77.50
75376;HTU21D;63958;52.004;5.908;2022-11-11T02:55:08;11.61;77.43
75376;HTU21D;63958;52.004;5.908;2022-11-11T02:57:59;11.61;77.47
75376;HTU21D;63958;52.004;5.908;2022-11-11T03:00:47;11.63;77.47
75376;HTU21D;63958;52.004;5.908;2022-11-11T03:03:34;11.63;77.53
75376;HTU21D;63958;52.004;5.908;2022-11-11T03:06:22;11.61;77.61
75376;HTU21D;63958;52.004;5.908;2022-11-11T03:09:09;11.62;77.69
75376;HTU21D;63958;52.004;5.908;2022-11-11T03:11:57;11.61;77.61
75376;HTU21D;63958;52.004;5.908;2022-11-11T03:14:48;11.64;77.62
75376;HTU21D;63958;52.004;5.908;2022-11-11T03:17:35;11.62;77.69
75376;HTU21D;63958;52.004;5.908;2022-11-11T03:20:23;11.60;77.82
75376;HTU21D;63958;52.004;5.908;2022-11-11T03:23:38;11.59;77.83
75376;HTU21D;63958;52.004;5.908;2022-11-11T03:26:25;11.59;77.85
75376;HTU21D;63958;52.004;5.908;2022-11-11T03:29:10;11.60;77.84
75376;HTU21D;63958;52.004;5.908;2022-11-11T03:32:00;11.60;77.85
75376;HTU21D;63958;52.004;5.908;2022-11-11T03:34:48;11.59;78.05
75376;HTU21D;63958;52.004;5.908;2022-11-11T03:37:35;11.57;78.01
75376;HTU21D;63958;52.004;5.908;2022-11-11T03:40:35;11.56;78.09
75376;HTU21D;63958;52.004;5.908;2022-11-11T03:43:24;11.57;78.01
75376;HTU21D;63958;52.004;5.908;2022-11-11T03:46:12;11.55;78.03
75376;HTU21D;63958;52.004;5.908;2022-11-11T03:49:02;11.56;78.05
75376;HTU21D;63958;52.004;5.908;2022-11-11T03:51:50;11.57;78.04
75376;HTU21D;63958;52.004;5.908;2022-11-11T03:54:38;11.56;78.21
75376;HTU21D;63958;52.004;5.908;2022-11-11T03:57:25;11.55;78.21
75376;HTU21D;63958;52.004;5.908;2022-11-11T04:00:20;11.53;78.08
75376;HTU21D;63958;52.004;5.908;2022-11-11T04:03:10;11.57;78.01
75376;HTU21D;63958;52.004;5.908;2022-11-11T04:06:13;11.57;78.08
75376;HTU21D;63958;52.004;5.908;2022-11-11T04:09:13;11.55;78.15
75376;HTU21D;63958;52.004;5.908;2022-11-11T04:12:13;11.56;78.04
75376;HTU21D;63958;52.004;5.908;2022-11-11T04:15:00;11.55;78.07
75376;HTU21D;63958;52.004;5.908;2022-11-11T04:18:00;11.54;78.15
75376;HTU21D;63958;52.004;5.908;2022-11-11T04:20:48;11.52;78.14
75376;HTU21D;63958;52.004;5.908;2022-11-11T04:23:50;11.52;78.07
75376;HTU21D;63958;52.004;5.908;2022-11-11T04:26:38;11.49;78.13
75376;HTU21D;63958;52.004;5.908;2022-11-11T04:29:23;11.51;78.12
75376;HTU21D;63958;52.004;5.908;2022-11-11T04:32:18;11.49;78.23
75376;HTU21D;63958;52.004;5.908;2022-11-11T04:35:19;11.48;78.17
75376;HTU21D;63958;52.004;5.908;2022-11-11T04:38:11;11.49;78.24
75376;HTU21D;63958;52.004;5.908;2022-11-11T04:41:14;11.48;78.07
75376;HTU21D;63958;52.004;5.908;2022-11-11T04:44:01;11.52;78.07
75376;HTU21D;63958;52.004;5.908;2022-11-11T04:47:02;11.53;78.02
75376;HTU21D;63958;52.004;5.908;2022-11-11T04:49:49;11.53;78.04
75376;HTU21D;63958;52.004;5.908;2022-11-11T04:52:37;11.52;77.98
75376;HTU21D;63958;52.004;5.908;2022-11-11T04:55:24;11.51;78.11
75376;HTU21D;63958;52.004;5.908;2022-11-11T04:58:29;11.45;78.09
75376;HTU21D;63958;52.004;5.908;2022-11-11T05:01:17;11.44;78.18
75376;HTU21D;63958;52.004;5.908;2022-11-11T05:04:25;11.43;78.20
75376;HTU21D;63958;52.004;5.908;2022-11-11T05:07:10;11.47;78.12
75376;HTU21D;63958;52.004;5.908;2022-11-11T05:10:10;11.47;78.08
75376;HTU21D;63958;52.004;5.908;2022-11-11T05:12:58;11.44;78.08
75376;HTU21D;63958;52.004;5.908;2022-11-11T05:16:00;11.44;78.08
75376;HTU21D;63958;52.004;5.908;2022-11-11T05:19:09;11.43;78.12
75376;HTU21D;63958;52.004;5.908;2022-11-11T05:22:13;11.43;78.05
75376;HTU21D;63958;52.004;5.908;2022-11-11T05:25:04;11.43;78.08
75376;HTU21D;63958;52.004;5.908;2022-11-11T05:28:04;11.39;78.15
75376;HTU21D;63958;52.004;5.908;2022-11-11T05:30:51;11.40;78.16
75376;HTU21D;63958;52.004;5.908;2022-11-11T05:33:41;11.39;78.16
75376;HTU21D;63958;52.004;5.908;2022-11-11T05:36:29;11.39;78.18
75376;HTU21D;63958;52.004;5.908;2022-11-11T05:39:17;11.40;78.18
75376;HTU21D;63958;52.004;5.908;2022-11-11T05:42:04;11.40;78.20
75376;HTU21D;63958;52.004;5.908;2022-11-11T05:44:52;11.40;78.21
75376;HTU21D;63958;52.004;5.908;2022-11-11T05:47:39;11.38;78.18
75376;HTU21D;63958;52.004;5.908;2022-11-11T05:50:29;11.37;78.23
75376;HTU21D;63958;52.004;5.908;2022-11-11T05:53:18;11.36;78.26
75376;HTU21D;63958;52.004;5.908;2022-11-11T05:56:07;11.30;78.28
75376;HTU21D;63958;52.004;5.908;2022-11-11T05:58:55;11.30;78.34
75376;HTU21D;63958;52.004;5.908;2022-11-11T06:01:43;11.27;78.36
75376;HTU21D;63958;52.004;5.908;2022-11-11T06:04:30;11.26;78.34
75376;HTU21D;63958;52.004;5.908;2022-11-11T06:07:21;11.26;78.38
75376;HTU21D;63958;52.004;5.908;2022-11-11T06:10:09;11.25;78.37
75376;HTU21D;63958;52.004;5.908;2022-11-11T06:13:11;11.26;78.38
75376;HTU21D;63958;52.004;5.908;2022-11-11T06:15:59;11.26;78.39
75376;HTU21D;63958;52.004;5.908;2022-11-11T06:18:46;11.25;78.36
75376;HTU21D;63958;52.004;5.908;2022-11-11T06:21:34;11.24;78.41
75376;HTU21D;63958;52.004;5.908;2022-11-11T06:24:42;11.23;78.40
75376;HTU21D;63958;52.004;5.908;2022-11-11T06:27:50;11.20;78.55
75376;HTU21D;63958;52.004;5.908;2022-11-11T06:30:35;11.20;78.46
75376;HTU21D;63958;52.004;5.908;2022-11-11T06:33:22;11.22;78.40
75376;HTU21D;63958;52.004;5.908;2022-11-11T06:36:12;11.22;78.36
75376;HTU21D;63958;52.004;5.908;2022-11-11T06:39:00;11.22;78.42
75376;HTU21D;63958;52.004;5.908;2022-11-11T06:41:51;11.24;78.32
75376;HTU21D;63958;52.004;5.908;2022-11-11T06:44:39;11.23;78.32
75376;HTU21D;63958;52.004;5.908;2022-11-11T06:47:27;11.20;78.34
75376;HTU21D;63958;52.004;5.908;2022-11-11T06:50:15;11.18;78.39
75376;HTU21D;63958;52.004;5.908;2022-11-11T06:53:06;11.17;78.42
75376;HTU21D;63958;52.004;5.908;2022-11-11T06:55:54;11.15;78.57
75376;HTU21D;63958;52.004;5.908;2022-11-11T06:58:44;11.15;78.43
75376;HTU21D;63958;52.004;5.908;2022-11-11T07:01:32;11.14;78.45
75376;HTU21D;63958;52.004;5.908;2022-11-11T07:04:19;11.15;78.50
75376;HTU21D;63958;52.004;5.908;2022-11-11T07:07:07;11.16;78.44
75376;HTU21D;63958;52.004;5.908;2022-11-11T07:09:54;11.14;78.41
75376;HTU21D;63958;52.004;5.908;2022-11-11T07:12:42;11.12;78.38
75376;HTU21D;63958;52.004;5.908;2022-11-11T07:15:32;11.09;78.38
75376;HTU21D;63958;52.004;5.908;2022-11-11T07:18:20;11.10;78.37
75376;HTU21D;63958;52.004;5.908;2022-11-11T07:21:08;11.12;78.35
75376;HTU21D;63958;52.004;5.908;2022-11-11T07:23:55;11.13;78.24
75376;HTU21D;63958;52.004;5.908;2022-11-11T07:26:43;11.14;78.12
75376;HTU21D;63958;52.004;5.908;2022-11-11T07:29:30;11.12;78.06
75376;HTU21D;63958;52.004;5.908;2022-11-11T07:32:20;11.09;78.05
75376;HTU21D;63958;52.004;5.908;2022-11-11T07:35:08;11.04;78.01
75376;HTU21D;63958;52.004;5.908;2022-11-11T07:37:57;11.00;78.02
75376;HTU21D;63958;52.004;5.908;2022-11-11T07:40:45;10.95;78.10
75376;HTU21D;63958;52.004;5.908;2022-11-11T07:43:32;10.94;78.13
75376;HTU21D;63958;52.004;5.908;2022-11-11T07:46:20;10.94;78.13
75376;HTU21D;63958;52.004;5.908;2022-11-11T07:49:10;10.94;77.99
75376;HTU21D;63958;52.004;5.908;2022-11-11T07:51:58;10.93;77.97
75376;HTU21D;63958;52.004;5.908;2022-11-11T07:54:45;10.93;77.99
75376;HTU21D;63958;52.004;5.908;2022-11-11T07:57:33;10.93;77.96
75376;HTU21D;63958;52.004;5.908;2022-11-11T08:00:21;10.90;77.87
75376;HTU21D;63958;52.004;5.908;2022-11-11T08:03:09;10.89;77.86
75376;HTU21D;63958;52.004;5.908;2022-11-11T08:06:01;10.85;77.80
75376;HTU21D;63958;52.004;5.908;2022-11-11T08:08:49;10.79;77.95
75376;HTU21D;63958;52.004;5.908;2022-11-11T08:11:36;10.78;77.82
75376;HTU21D;63958;52.004;5.908;2022-11-11T08:14:44;10.75;77.73
75376;HTU21D;63958;52.004;5.908;2022-11-11T08:17:36;10.70;77.76
75376;HTU21D;63958;52.004;5.908;2022-11-11T08:20:24;10.66;77.76
75376;HTU21D;63958;52.004;5.908;2022-11-11T08:23:14;10.60;77.81
75376;HTU21D;63958;52.004;5.908;2022-11-11T08:26:08;10.56;77.92
75376;HTU21D;63958;52.004;5.908;2022-11-11T08:28:56;10.56;77.95
75376;HTU21D;63958;52.004;5.908;2022-11-11T08:31:43;10.57;77.94
75376;HTU21D;63958;52.004;5.908;2022-11-11T08:34:31;10.59;77.95
75376;HTU21D;63958;52.004;5.908;2022-11-11T08:37:18;10.59;77.82
75376;HTU21D;63958;52.004;5.908;2022-11-11T08:40:09;10.60;77.80
75376;HTU21D;63958;52.004;5.908;2022-11-11T08:42:57;10.60;77.77
75376;HTU21D;63958;52.004;5.908;2022-11-11T08:45:45;10.62;77.65
75376;HTU21D;63958;52.004;5.908;2022-11-11T08:48:32;10.58;77.52
75376;HTU21D;63958;52.004;5.908;2022-11-11T08:51:20;10.55;77.53
75376;HTU21D;63958;52.004;5.908;2022-11-11T08:54:08;10.53;77.37
75376;HTU21D;63958;52.004;5.908;2022-11-11T08:56:58;10.51;77.49
75376;HTU21D;63958;52.004;5.908;2022-11-11T08:59:45;10.46;77.53
75376;HTU21D;63958;52.004;5.908;2022-11-11T09:04:38;10.46;77.59
75376;HTU21D;63958;52.004;5.908;2022-11-11T09:07:26;10.49;77.52
75376;HTU21D;63958;52.004;5.908;2022-11-11T09:10:14;10.50;77.52
75376;HTU21D;63958;52.004;5.908;2022-11-11T09:13:02;10.54;77.51
75376;HTU21D;63958;52.004;5.908;2022-11-11T09:15:52;10.55;77.40
75376;HTU21D;63958;52.004;5.908;2022-11-11T09:18:39;10.59;77.37
75376;HTU21D;63958;52.004;5.908;2022-11-11T09:21:29;10.58;77.30
75376;HTU21D;63958;52.004;5.908;2022-11-11T09:24:16;10.59;77.27
75376;HTU21D;63958;52.004;5.908;2022-11-11T09:27:04;10.59;77.34
75376;HTU21D;63958;52.004;5.908;2022-11-11T09:29:51;10.64;77.27
75376;HTU21D;63958;52.004;5.908;2022-11-11T09:32:39;10.66;77.18
75376;HTU21D;63958;52.004;5.908;2022-11-11T09:35:27;10.66;77.17
75376;HTU21D;63958;52.004;5.908;2022-11-11T09:38:17;10.70;77.06
75376;HTU21D;63958;52.004;5.908;2022-11-11T09:41:13;10.71;77.10
75376;HTU21D;63958;52.004;5.908;2022-11-11T09:44:02;10.74;77.01
75376;HTU21D;63958;52.004;5.908;2022-11-11T09:46:54;10.75;76.92
75376;HTU21D;63958;52.004;5.908;2022-11-11T09:49:51;10.79;76.98
75376;HTU21D;63958;52.004;5.908;2022-11-11T09:52:44;10.83;76.80
75376;HTU21D;63958;52.004;5.908;2022-11-11T09:55:36;10.83;76.79
75376;HTU21D;63958;52.004;5.908;2022-11-11T09:58:30;10.88;76.87
75376;HTU21D;63958;52.004;5.908;2022-11-11T10:01:21;10.95;76.82
75376;HTU21D;63958;52.004;5.908;2022-11-11T10:04:22;11.02;76.76
75376;HTU21D;63958;52.004;5.908;2022-11-11T10:07:13;11.07;76.72
75376;HTU21D;63958;52.004;5.908;2022-11-11T10:10:23;11.11;76.62
75376;HTU21D;63958;52.004;5.908;2022-11-11T10:13:19;11.16;76.50
75376;HTU21D;63958;52.004;5.908;2022-11-11T10:16:15;11.22;76.48
75376;HTU21D;63958;52.004;5.908;2022-11-11T10:19:14;11.28;76.51
75376;HTU21D;63958;52.004;5.908;2022-11-11T10:22:08;11.33;76.38
75376;HTU21D;63958;52.004;5.908;2022-11-11T10:25:07;11.38;76.19
75376;HTU21D;63958;52.004;5.908;2022-11-11T10:27:57;11.40;75.92
75376;HTU21D;63958;52.004;5.908;2022-11-11T10:30:49;11.46;76.11
75376;HTU21D;63958;52.004;5.908;2022-11-11T10:33:41;11.54;75.89
75376;HTU21D;63958;52.004;5.908;2022-11-11T10:36:32;11.57;75.81
75376;HTU21D;63958;52.004;5.908;2022-11-11T10:39:23;11.59;75.70
75376;HTU21D;63958;52.004;5.908;2022-11-11T10:42:15;11.64;75.61
75376;HTU21D;63958;52.004;5.908;2022-11-11T10:45:10;11.68;75.63
75376;HTU21D;63958;52.004;5.908;2022-11-11T10:48:05;11.73;75.64
75376;HTU21D;63958;52.004;5.908;2022-11-11T10:50:56;11.79;75.71
75376;HTU21D;63958;52.004;5.908;2022-11-11T10:53:53;11.88;75.62
75376;HTU21D;63958;52.004;5.908;2022-11-11T10:56:45;11.97;75.52
75376;HTU21D;63958;52.004;5.908;2022-11-11T10:59:40;12.04;75.47
75376;HTU21D;63958;52.004;5.908;2022-11-11T11:02:32;12.11;75.23
75376;HTU21D;63958;52.004;5.908;2022-11-11T11:05:26;12.18;75.26
75376;HTU21D;63958;52.004;5.908;2022-11-11T11:08:18;12.25;75.12
75376;HTU21D;63958;52.004;5.908;2022-11-11T11:11:09;12.32;75.09
75376;HTU21D;63958;52.004;5.908;2022-11-11T11:14:05;12.38;75.10
75376;HTU21D;63958;52.004;5.908;2022-11-11T11:16:54;12.45;74.70
75376;HTU21D;63958;52.004;5.908;2022-11-11T11:20:08;12.47;74.81
75376;HTU21D;63958;52.004;5.908;2022-11-11T11:22:57;12.52;74.53
75376;HTU21D;63958;52.004;5.908;2022-11-11T11:25:51;12.56;74.58
75376;HTU21D;63958;52.004;5.908;2022-11-11T11:29:01;12.60;74.58
75376;HTU21D;63958;52.004;5.908;2022-11-11T11:31:50;12.66;74.54
75376;HTU21D;63958;52.004;5.908;2022-11-11T11:34:47;12.72;74.64
75376;HTU21D;63958;52.004;5.908;2022-11-11T11:37:49;12.77;74.46
75376;HTU21D;63958;52.004;5.908;2022-11-11T11:40:49;12.80;74.35
75376;HTU21D;63958;52.004;5.908;2022-11-11T11:43:38;12.82;74.08
75376;HTU21D;63958;52.004;5.908;2022-11-11T11:46:29;12.84;74.18
75376;HTU21D;63958;52.004;5.908;2022-11-11T11:49:25;12.86;74.23
75376;HTU21D;63958;52.004;5.908;2022-11-11T11:52:23;12.86;74.12
75376;HTU21D;63958;52.004;5.908;2022-11-11T11:55:19;12.85;74.11
75376;HTU21D;63958;52.004;5.908;2022-11-11T11:58:20;12.86;74.24
75376;HTU21D;63958;52.004;5.908;2022-11-11T12:01:11;12.84;73.85
75376;HTU21D;63958;52.004;5.908;2022-11-11T12:04:21;12.79;73.93
75376;HTU21D;63958;52.004;5.908;2022-11-11T12:07:23;12.73;73.59
75376;HTU21D;63958;52.004;5.908;2022-11-11T12:10:23;12.69;73.76
75376;HTU21D;63958;52.004;5.908;2022-11-11T12:13:22;12.63;73.71
75376;HTU21D;63958;52.004;5.908;2022-11-11T12:16:22;12.64;73.93
75376;HTU21D;63958;52.004;5.908;2022-11-11T12:19:25;12.64;73.93
75376;HTU21D;63958;52.004;5.908;2022-11-11T12:22:26;12.62;73.92
75376;HTU21D;63958;52.004;5.908;2022-11-11T12:25:26;12.62;73.61
75376;HTU21D;63958;52.004;5.908;2022-11-11T12:28:30;12.58;73.70
75376;HTU21D;63958;52.004;5.908;2022-11-11T12:31:29;12.58;73.49
75376;HTU21D;63958;52.004;5.908;2022-11-11T12:34:39;12.57;73.64
75376;HTU21D;63958;52.004;5.908;2022-11-11T12:37:36;12.59;73.47
75376;HTU21D;63958;52.004;5.908;2022-11-11T12:40:35;12.60;73.15
75376;HTU21D;63958;52.004;5.908;2022-11-11T12:43:32;12.58;73.34
75376;HTU21D;63958;52.004;5.908;2022-11-11T12:46:29;12.60;73.35
75376;HTU21D;63958;52.004;5.908;2022-11-11T12:49:42;12.60;73.26
75376;HTU21D;63958;52.004;5.908;2022-11-11T12:52:40;12.61;73.09
75376;HTU21D;63958;52.004;5.908;2022-11-11T12:55:39;12.62;73.19
75376;HTU21D;63958;52.004;5.908;2022-11-11T12:58:37;12.63;72.87
75376;HTU21D;63958;52.004;5.908;2022-11-11T13:01:37;12.65;73.15
75376;HTU21D;63958;52.004;5.908;2022-11-11T13:04:42;12.65;73.19
75376;HTU21D;63958;52.004;5.908;2022-11-11T13:07:48;12.66;73.20
75376;HTU21D;63958;52.004;5.908;2022-11-11T13:10:47;12.65;73.12
75376;HTU21D;63958;52.004;5.908;2022-11-11T13:13:53;12.69;73.22
75376;HTU21D;63958;52.004;5.908;2022-11-11T13:16:43;12.71;73.15
75376;HTU21D;63958;52.004;5.908;2022-11-11T13:19:34;12.71;73.18
75376;HTU21D;63958;52.004;5.908;2022-11-11T13:22:26;12.72;73.20
75376;HTU21D;63958;52.004;5.908;2022-11-11T13:25:18;12.72;73.17
75376;HTU21D;63958;52.004;5.908;2022-11-11T13:28:15;12.72;73.06
75376;HTU21D;63958;52.004;5.908;2022-11-11T13:31:12;12.73;73.14
75376;HTU21D;63958;52.004;5.908;2022-11-11T13:34:03;12.74;73.09
75376;HTU21D;63958;52.004;5.908;2022-11-11T13:36:53;12.75;73.03
75376;HTU21D;63958;52.004;5.908;2022-11-11T13:39:44;12.75;72.99
75376;HTU21D;63958;52.004;5.908;2022-11-11T13:42:37;12.77;73.12
75376;HTU21D;63958;52.004;5.908;2022-11-11T13:45:33;12.79;73.20
75376;HTU21D;63958;52.004;5.908;2022-11-11T13:48:25;12.81;73.16
75376;HTU21D;63958;52.004;5.908;2022-11-11T13:51:19;12.75;73.44
75376;HTU21D;63958;52.004;5.908;2022-11-11T13:54:20;12.77;73.35
75376;HTU21D;63958;52.004;5.908;2022-11-11T13:57:17;12.77;73.37
75376;HTU21D;63958;52.004;5.908;2022-11-11T14:00:24;12.79;73.35
75376;HTU21D;63958;52.004;5.908;2022-11-11T14:03:32;12.80;73.35
75376;HTU21D;63958;52.004;5.908;2022-11-11T14:06:35;12.82;73.27
75376;HTU21D;63958;52.004;5.908;2022-11-11T14:12:42;12.85;73.16
75376;HTU21D;63958;52.004;5.908;2022-11-11T14:15:41;12.88;73.19
75376;HTU21D;63958;52.004;5.908;2022-11-11T14:18:37;12.89;73.15
75376;HTU21D;63958;52.004;5.908;2022-11-11T14:21:42;12.91;73.18
75376;HTU21D;63958;52.004;5.908;2022-11-11T14:24:35;12.90;73.16
75376;HTU21D;63958;52.004;5.908;2022-11-11T14:27:26;12.93;73.12
75376;HTU21D;63958;52.004;5.908;2022-11-11T14:30:35;12.89;73.28
75376;HTU21D;63958;52.004;5.908;2022-11-11T14:33:37;12.92;73.18
75376;HTU21D;63958;52.004;5.908;2022-11-11T14:36:35;12.91;73.16
75376;HTU21D;63958;52.004;5.908;2022-11-11T14:39:35;12.91;73.21
75376;HTU21D;63958;52.004;5.908;2022-11-11T14:42:41;12.91;73.26
75376;HTU21D;63958;52.004;5.908;2022-11-11T14:48:57;12.91;73.26
75376;HTU21D;63958;52.004;5.908;2022-11-11T14:51:53;12.91;73.23
75376;HTU21D;63958;52.004;5.908;2022-11-11T14:55:07;12.89;73.33
75376;HTU21D;63958;52.004;5.908;2022-11-11T14:57:58;12.89;73.28
75376;HTU21D;63958;52.004;5.908;2022-11-11T15:00:48;12.90;73.35
75376;HTU21D;63958;52.004;5.908;2022-11-11T15:03:39;12.89;73.30
75376;HTU21D;63958;52.004;5.908;2022-11-11T15:06:35;12.88;73.34
75376;HTU21D;63958;52.004;5.908;2022-11-11T15:09:39;12.87;73.37
75376;HTU21D;63958;52.004;5.908;2022-11-11T15:12:41;12.85;73.41
75376;HTU21D;63958;52.004;5.908;2022-11-11T15:15:38;12.84;73.39
75376;HTU21D;63958;52.004;5.908;2022-11-11T15:18:46;12.81;73.47
75376;HTU21D;63958;52.004;5.908;2022-11-11T15:21:49;12.78;73.44
75376;HTU21D;63958;52.004;5.908;2022-11-11T15:24:47;12.79;73.44
75376;HTU21D;63958;52.004;5.908;2022-11-11T15:27:44;12.77;73.51
75376;HTU21D;63958;52.004;5.908;2022-11-11T15:30:48;12.73;73.61
75376;HTU21D;63958;52.004;5.908;2022-11-11T15:33:48;12.71;73.64
75376;HTU21D;63958;52.004;5.908;2022-11-11T15:36:51;12.67;73.67
75376;HTU21D;63958;52.004;5.908;2022-11-11T15:39:41;12.67;73.60
75376;HTU21D;63958;52.004;5.908;2022-11-11T15:42:32;12.65;73.59
75376;HTU21D;63958;52.004;5.908;2022-11-11T15:45:31;12.62;73.64
75376;HTU21D;63958;52.004;5.908;2022-11-11T15:48:22;12.61;73.64
75376;HTU21D;63958;52.004;5.908;2022-11-11T15:51:24;12.53;73.72
75376;HTU21D;63958;52.004;5.908;2022-11-11T15:54:21;12.49;73.81
75376;HTU21D;63958;52.004;5.908;2022-11-11T15:57:22;12.47;73.84
75376;HTU21D;63958;52.004;5.908;2022-11-11T16:00:26;12.42;73.92
75376;HTU21D;63958;52.004;5.908;2022-11-11T16:03:15;12.38;73.92
75376;HTU21D;63958;52.004;5.908;2022-11-11T16:06:06;12.34;73.93
75376;HTU21D;63958;52.004;5.908;2022-11-11T16:08:55;12.31;74.02
75376;HTU21D;63958;52.004;5.908;2022-11-11T16:11:45;12.25;74.06
75376;HTU21D;63958;52.004;5.908;2022-11-11T16:14:36;12.19;74.08
75376;HTU21D;63958;52.004;5.908;2022-11-11T16:17:29;12.16;74.14
75376;HTU21D;63958;52.004;5.908;2022-11-11T16:20:24;12.10;74.20
75376;HTU21D;63958;52.004;5.908;2022-11-11T16:23:16;12.04;74.25
75376;HTU21D;63958;52.004;5.908;2022-11-11T16:26:05;12.01;74.31
75376;HTU21D;63958;52.004;5.908;2022-11-11T16:28:57;11.98;74.33
75376;HTU21D;63958;52.004;5.908;2022-11-11T16:31:45;11.93;74.31
75376;HTU21D;63958;52.004;5.908;2022-11-11T16:34:35;11.90;74.31
75376;HTU21D;63958;52.004;5.908;2022-11-11T16:37:24;11.85;74.37
75376;HTU21D;63958;52.004;5.908;2022-11-11T16:40:32;11.78;74.42
75376;HTU21D;63958;52.004;5.908;2022-11-11T16:43:22;11.74;74.47
75376;HTU21D;63958;52.004;5.908;2022-11-11T16:46:15;11.68;74.49
75376;HTU21D;63958;52.004;5.908;2022-11-11T16:49:23;11.62;74.51
75376;HTU21D;63958;52.004;5.908;2022-11-11T16:52:14;11.58;74.52
75376;HTU21D;63958;52.004;5.908;2022-11-11T16:55:02;11.54;74.58
75376;HTU21D;63958;52.004;5.908;2022-11-11T16:57:49;11.48;74.64
75376;HTU21D;63958;52.004;5.908;2022-11-11T17:00:37;11.46;74.67
75376;HTU21D;63958;52.004;5.908;2022-11-11T17:03:29;11.42;74.72
75376;HTU21D;63958;52.004;5.908;2022-11-11T17:06:16;11.41;74.78
75376;HTU21D;63958;52.004;5.908;2022-11-11T17:09:26;11.36;74.78
75376;HTU21D;63958;52.004;5.908;2022-11-11T17:12:14;11.31;74.78
75376;HTU21D;63958;52.004;5.908;2022-11-11T17:15:02;11.27;74.78
75376;HTU21D;63958;52.004;5.908;2022-11-11T17:17:50;11.23;74.78
75376;HTU21D;63958;52.004;5.908;2022-11-11T17:20:40;11.18;74.82
75376;HTU21D;63958;52.004;5.908;2022-11-11T17:23:27;11.16;74.86
75376;HTU21D;63958;52.004;5.908;2022-11-11T17:26:16;11.12;74.87
75376;HTU21D;63958;52.004;5.908;2022-11-11T17:29:03;11.09;74.96
75376;HTU21D;63958;52.004;5.908;2022-11-11T17:31:50;11.05;75.01
75376;HTU21D;63958;52.004;5.908;2022-11-11T17:34:38;11.02;75.05
75376;HTU21D;63958;52.004;5.908;2022-11-11T17:37:32;11.02;75.06
75376;HTU21D;63958;52.004;5.908;2022-11-11T17:40:21;10.99;75.16
75376;HTU21D;63958;52.004;5.908;2022-11-11T17:43:08;10.98;75.18
75376;HTU21D;63958;52.004;5.908;2022-11-11T17:45:59;10.97;75.19
75376;HTU21D;63958;52.004;5.908;2022-11-11T17:48:46;10.94;75.17
75376;HTU21D;63958;52.004;5.908;2022-11-11T17:51:33;10.89;75.19
75376;HTU21D;63958;52.004;5.908;2022-11-11T17:54:24;10.87;75.22
75376;HTU21D;63958;52.004;5.908;2022-11-11T17:57:12;10.86;75.26
75376;HTU21D;63958;52.004;5.908;2022-11-11T17:59:59;10.83;75.27
75376;HTU21D;63958;52.004;5.908;2022-11-11T18:02:47;10.80;75.27